CPX961 Details

Departure: Washington Dulles International Airport (KIAD)
Arrival: Joint Base McGuire Dix Lakehurst (KWRI)
Route: MXE
Notes: EMPTY | NON-REVENUE REPOSITIONING LEG


Current Weather Information
KIAD 200752Z 10003KT 10SM BKN250 M02/M06 A3038 RMK AO2 SLP289 T10221061
KWRI 200756Z AUTO 00000KT 10SM CLR M02/M03 A3037 RMK AO2 SLP285 T10181026